Time;durP1;ratioP1;P1;durP2;ratioP2;P2;SDS_P1;SDS_P2;PMS_P1;PMS_P2;Temp;Humidity;BMP_temperature;BMP_pressure;BME280_temperature;BME280_humidity;BME280_pressure;Samples;Min_cycle;Max_cycle;Signal;HPM_P1;HPM_P2
2023/04/08 00:02:14;;;;;;;;;;;;;;;7.97;93.78;102210.78;5026900;28;19917;-64
2023/04/08 00:04:40;;;;;;;;;;;;;;;7.96;93.75;102214.41;5025761;28;19917;-64
2023/04/08 00:07:06;;;;;;;;;;;;;;;7.96;93.59;102203.81;5018701;28;20383;-64
2023/04/08 00:09:31;;;;;;;;;;;;;;;7.97;93.91;102205.50;5025297;28;19917;-64
2023/04/08 00:11:56;;;;;;;;;;;;;;;7.97;94.01;102214.28;5019106;28;19921;-64
2023/04/08 00:14:21;;;;;;;;;;;;;;;7.98;94.17;102209.81;5026292;28;19913;-64
2023/04/08 00:16:46;;;;;;;;;;;;;;;8.00;94.04;102206.09;5020210;28;19963;-64
2023/04/08 00:19:12;;;;;;;;;;;;;;;8.03;93.97;102208.50;5027119;28;20405;-64
2023/04/08 00:21:37;;;;;;;;;;;;;;;8.04;94.34;102204.06;5023981;28;19921;-64
2023/04/08 00:24:02;;;;;;;;;;;;;;;8.07;94.21;102207.28;5022690;28;20015;-64
2023/04/08 00:26:27;;;;;;;;;;;;;;;8.07;94.29;102206.44;5016089;28;19922;-64
2023/04/08 00:28:53;;;;;;;;;;;;;;;8.08;94.16;102213.44;5022499;28;19921;-64
2023/04/08 00:31:18;;;;;;;;;;;;;;;8.11;94.13;102209.72;5027791;28;19923;-64
2023/04/08 00:33:43;;;;;;;;;;;;;;;8.12;94.44;102214.91;5020837;28;19932;-64
2023/04/08 00:36:08;;;;;;;;;;;;;;;8.13;94.30;102208.63;5028901;28;19940;-64
2023/04/08 00:38:34;;;;;;;;;;;;;;;8.15;94.65;102209.34;5016763;28;19923;-64
2023/04/08 00:40:59;;;;;;;;;;;;;;;8.17;94.57;102212.72;5029918;28;19913;-64
2023/04/08 00:43:24;;;;;;;;;;;;;;;8.18;94.80;102209.13;5023856;28;19929;-64
2023/04/08 00:45:49;;;;;;;;;;;;;;;8.18;94.73;102209.13;5023742;28;19920;-64
2023/04/08 00:48:15;;;;;;;;;;;;;;;8.18;94.58;102217.06;5024939;28;20030;-64
2023/04/08 00:50:41;;;;;;;;;;;;;;;8.18;94.82;102213.56;5030861;28;19913;-64
2023/04/08 00:53:07;;;;;;;;;;;;;;;8.17;94.82;102222.47;5025260;28;19921;-64
2023/04/08 00:55:32;;;;;;;;;;;;;;;8.15;94.71;102212.00;5023182;28;19982;-64
2023/04/08 00:57:57;;;;;;;;;;;;;;;8.15;94.98;102219.09;5023719;28;20000;-64
2023/04/08 01:00:23;;;;;;;;;;;;;;;8.10;95.51;102218.63;5027421;28;19917;-65
2023/04/08 01:02:53;;;;;;;;;;;;;;;8.05;95.52;102222.44;5025439;28;19913;-64
2023/04/08 01:05:23;;;;;;;;;;;;;;;8.04;95.30;102223.41;5026849;28;19917;-64
2023/04/08 01:07:49;;;;;;;;;;;;;;;8.03;95.57;102224.38;5027399;28;19928;-64
2023/04/08 01:10:15;;;;;;;;;;;;;;;8.00;95.74;102216.69;5022692;28;20000;-64
2023/04/08 01:12:43;;;;;;;;;;;;;;;7.97;95.82;102219.56;5021101;28;20378;-64
2023/04/08 01:15:10;;;;;;;;;;;;;;;7.96;95.71;102225.81;5025799;28;19964;-64
2023/04/08 01:17:36;;;;;;;;;;;;;;;7.93;96.44;102222.56;5025753;28;20453;-64
2023/04/08 01:20:03;;;;;;;;;;;;;;;7.88;96.34;102222.94;5026531;28;19964;-64
2023/04/08 01:22:31;;;;;;;;;;;;;;;7.85;96.17;102223.19;5024665;28;19921;-64
2023/04/08 01:24:59;;;;;;;;;;;;;;;7.83;96.72;102224.25;5023577;28;19931;-64
2023/04/08 01:27:25;;;;;;;;;;;;;;;7.82;96.34;102231.34;5024198;28;19920;-64
2023/04/08 01:29:51;;;;;;;;;;;;;;;7.80;96.61;102224.47;5026945;28;20035;-64
2023/04/08 01:32:17;;;;;;;;;;;;;;;7.77;96.72;102226.41;5025065;28;20382;-64
2023/04/08 01:34:43;;;;;;;;;;;;;;;7.76;96.72;102226.50;5026751;28;19925;-64
2023/04/08 01:37:09;;;;;;;;;;;;;;;7.76;96.81;102231.81;5015367;28;19917;-64
2023/04/08 01:39:34;;;;;;;;;;;;;;;7.76;96.77;102231.81;5028698;28;19917;-64
2023/04/08 01:42:01;;;;;;;;;;;;;;;7.76;96.96;102227.34;5023404;28;19913;-64
2023/04/08 01:44:26;;;;;;;;;;;;;;;7.76;97.31;102237.94;5021729;28;20355;-64
2023/04/08 01:46:52;;;;;;;;;;;;;;;7.76;97.45;102237.09;5029440;28;19953;-64
2023/04/08 01:49:18;;;;;;;;;;;;;;;7.76;97.25;102227.34;5019917;28;20386;-64
2023/04/08 01:51:45;;;;;;;;;;;;;;;7.80;97.07;102235.03;5027953;28;19956;-64
2023/04/08 01:54:10;;;;;;;;;;;;;;;7.82;97.19;102241.09;5022012;28;20011;-64
2023/04/08 01:56:36;;;;;;;;;;;;;;;7.84;97.19;102237.38;5024292;28;20019;-64
2023/04/08 01:59:04;;;;;;;;;;;;;;;7.87;97.15;102236.28;5026101;28;20396;-64
2023/04/08 02:01:30;;;;;;;;;;;;;;;7.88;97.03;102235.31;5019630;28;20379;-64
2023/04/08 02:03:57;;;;;;;;;;;;;;;7.87;97.23;102233.63;5024707;28;19943;-64
2023/04/08 02:06:23;;;;;;;;;;;;;;;7.93;97.19;102243.75;5029585;28;19940;-64
2023/04/08 02:08:48;;;;;;;;;;;;;;;7.94;97.52;102238.31;5031704;28;20366;-65
2023/04/08 02:11:13;;;;;;;;;;;;;;;7.96;97.34;102240.84;5026043;28;19913;-64
2023/04/08 02:13:38;;;;;;;;;;;;;;;7.97;97.63;102239.88;5027442;28;20048;-64
2023/04/08 02:16:24;;;;;;;;;;;;;;;7.99;97.67;102244.09;5029149;28;19913;-64
2023/04/08 02:19:01;;;;;;;;;;;;;;;7.99;97.76;102243.25;5023757;28;19959;-64
2023/04/08 02:21:31;;;;;;;;;;;;;;;7.98;98.12;102236.28;5025867;28;19920;-64
2023/04/08 02:23:58;;;;;;;;;;;;;;;7.97;98.45;102240.72;5028500;28;19928;-64
2023/04/08 02:26:24;;;;;;;;;;;;;;;7.99;98.07;102245.91;5025178;28;19924;-64
2023/04/08 02:28:51;;;;;;;;;;;;;;;8.00;97.82;102237.00;5026286;28;19913;-64
2023/04/08 02:31:16;;;;;;;;;;;;;;;8.01;97.77;102241.31;5026016;28;19960;-64
2023/04/08 02:33:42;;;;;;;;;;;;;;;8.02;98.17;102250.94;5021282;28;20287;-64
2023/04/08 02:36:07;;;;;;;;;;;;;;;8.01;98.01;102243.97;5028681;28;19960;-64
2023/04/08 02:38:32;;;;;;;;;;;;;;;8.02;98.01;102250.94;5021679;28;19967;-64
2023/04/08 02:40:57;;;;;;;;;;;;;;;8.02;97.94;102248.31;5022357;28;19917;-64
2023/04/08 02:43:30;;;;;;;;;;;;;;;8.03;98.10;102242.06;5021389;28;19917;-64
2023/04/08 02:45:56;;;;;;;;;;;;;;;8.02;98.04;102254.44;5022297;28;20419;-64
2023/04/08 02:48:21;;;;;;;;;;;;;;;8.04;97.74;102259.59;5025107;28;19918;-64
2023/04/08 02:50:46;;;;;;;;;;;;;;;8.02;97.70;102249.16;5021100;28;20302;-64
2023/04/08 02:53:11;;;;;;;;;;;;;;;8.01;97.84;102258.03;5023215;28;19971;-64
2023/04/08 02:55:37;;;;;;;;;;;;;;;7.97;97.96;102261.91;5026838;28;20020;-64
2023/04/08 02:58:02;;;;;;;;;;;;;;;7.94;98.12;102259.50;5026628;28;19933;-64
2023/04/08 03:00:27;;;;;;;;;;;;;;;7.94;97.70;102263.94;5025605;28;19925;-64
2023/04/08 03:02:52;;;;;;;;;;;;;;;7.95;97.89;102261.16;5022370;28;19921;-64
2023/04/08 03:05:18;;;;;;;;;;;;;;;7.98;97.86;102260.94;5020247;28;19917;-64
2023/04/08 03:07:43;;;;;;;;;;;;;;;7.97;97.63;102261.91;5018221;28;20628;-64
2023/04/08 03:10:08;;;;;;;;;;;;;;;7.96;97.65;102252.28;5028372;28;20413;-64
2023/04/08 03:12:33;;;;;;;;;;;;;;;7.90;97.93;102259.84;5025557;28;19913;-64
2023/04/08 03:14:59;;;;;;;;;;;;;;;7.84;97.85;102261.16;5022730;28;19918;-64
2023/04/08 03:17:25;;;;;;;;;;;;;;;7.77;97.53;102257.28;5027151;28;19917;-64
2023/04/08 03:19:50;;;;;;;;;;;;;;;7.72;97.69;102255.00;5032318;28;20413;-64
2023/04/08 03:22:15;;;;;;;;;;;;;;;7.70;97.79;102264.00;5024094;28;19917;-64
2023/04/08 03:24:40;;;;;;;;;;;;;;;7.65;97.73;102267.00;5025614;28;19967;-64
2023/04/08 03:27:07;;;;;;;;;;;;;;;7.64;97.31;102261.84;5018844;28;19921;-64
2023/04/08 03:29:32;;;;;;;;;;;;;;;7.61;97.33;102260.28;5021879;28;19917;-64
2023/04/08 03:31:57;;;;;;;;;;;;;;;7.61;97.57;102257.63;5025819;28;19924;-64
2023/04/08 03:34:22;;;;;;;;;;;;;;;7.61;97.54;102255.00;5020676;28;19917;-64
2023/04/08 03:36:47;;;;;;;;;;;;;;;7.62;97.74;102259.31;5023219;28;20347;-64
2023/04/08 03:39:13;;;;;;;;;;;;;;;7.65;97.56;102258.25;5026020;28;19924;-64
2023/04/08 03:41:38;;;;;;;;;;;;;;;7.67;97.73;102265.09;5018222;28;19913;-64
2023/04/08 03:44:03;;;;;;;;;;;;;;;7.68;97.68;102258.84;5020216;28;19921;-64
2023/04/08 03:46:28;;;;;;;;;;;;;;;7.70;97.77;102264.00;5018738;28;19932;-64
2023/04/08 03:48:53;;;;;;;;;;;;;;;7.72;97.93;102265.56;5025232;28;20474;-64
2023/04/08 03:51:18;;;;;;;;;;;;;;;7.75;97.55;102261.84;5024851;28;20378;-64
2023/04/08 03:53:44;;;;;;;;;;;;;;;7.78;97.64;102266.91;5016283;28;19921;-64
2023/04/08 03:56:09;;;;;;;;;;;;;;;7.80;97.57;102266.78;5024624;28;20358;-64
2023/04/08 03:58:34;;;;;;;;;;;;;;;7.80;97.58;102280.00;5028940;28;19925;-64
2023/04/08 04:00:59;;;;;;;;;;;;;;;7.81;97.59;102271.16;5027074;28;19917;-64
2023/04/08 04:03:25;;;;;;;;;;;;;;;7.78;97.58;102278.31;5024270;28;20012;-64
2023/04/08 04:05:50;;;;;;;;;;;;;;;7.76;97.66;102280.25;5022704;28;20007;-64
2023/04/08 04:08:15;;;;;;;;;;;;;;;7.74;97.91;102279.53;5026136;28;19944;-64
2023/04/08 04:10:40;;;;;;;;;;;;;;;7.74;97.67;102278.69;5026713;28;19921;-64
2023/04/08 04:13:05;;;;;;;;;;;;;;;7.73;97.89;102279.63;5032859;28;19928;-63
2023/04/08 04:15:31;;;;;;;;;;;;;;;7.73;97.98;102283.13;5021347;28;19913;-64
2023/04/08 04:17:56;;;;;;;;;;;;;;;7.71;97.55;102281.56;5029262;28;19999;-64
2023/04/08 04:20:21;;;;;;;;;;;;;;;7.70;97.60;102287.81;5025282;28;20727;-64
2023/04/08 04:22:46;;;;;;;;;;;;;;;7.68;97.38;102289.72;5027628;28;20011;-64
2023/04/08 04:25:11;;;;;;;;;;;;;;;7.65;97.60;102292.59;5027228;28;19920;-64
2023/04/08 04:27:36;;;;;;;;;;;;;;;7.62;97.64;102296.31;5030340;28;19925;-64
2023/04/08 04:30:02;;;;;;;;;;;;;;;7.59;97.97;102301.00;5024596;28;19925;-64
2023/04/08 04:32:27;;;;;;;;;;;;;;;7.56;97.49;102302.09;5026858;28;19932;-64
2023/04/08 04:34:52;;;;;;;;;;;;;;;7.55;97.91;102305.69;5014306;28;19920;-64
2023/04/08 04:37:17;;;;;;;;;;;;;;;7.56;97.89;102314.47;5019088;28;20064;-64
2023/04/08 04:39:43;;;;;;;;;;;;;;;7.53;97.61;102310.25;5020867;28;19924;-64
2023/04/08 04:42:08;;;;;;;;;;;;;;;7.52;97.81;102316.50;5019190;28;20026;-64
2023/04/08 04:44:33;;;;;;;;;;;;;;;7.50;98.02;102318.38;5023702;28;20008;-64
2023/04/08 04:46:58;;;;;;;;;;;;;;;7.49;98.04;102314.06;5026799;28;20019;-64
2023/04/08 04:49:24;;;;;;;;;;;;;;;7.49;97.92;102319.34;5026975;28;19944;-64
2023/04/08 04:51:49;;;;;;;;;;;;;;;7.49;97.59;102315.84;5025093;28;19952;-64
2023/04/08 04:54:14;;;;;;;;;;;;;;;7.48;97.68;102328.22;5030152;28;19940;-64
2023/04/08 04:56:39;;;;;;;;;;;;;;;7.47;98.00;102329.19;5023232;28;19918;-64
2023/04/08 04:59:05;;;;;;;;;;;;;;;7.47;97.85;102329.19;5029132;28;19943;-64
2023/04/08 05:01:30;;;;;;;;;;;;;;;7.47;97.82;102327.38;5027877;28;19924;-64
2023/04/08 05:03:55;;;;;;;;;;;;;;;7.47;97.64;102334.47;5024718;28;20707;-64
2023/04/08 05:06:22;;;;;;;;;;;;;;;7.46;97.74;102336.25;5023554;28;19920;-64
2023/04/08 05:08:47;;;;;;;;;;;;;;;7.46;98.05;102340.72;5021529;28;19970;-64
2023/04/08 05:11:12;;;;;;;;;;;;;;;7.45;98.07;102344.31;5018219;28;20007;-64
2023/04/08 05:13:37;;;;;;;;;;;;;;;7.45;97.51;102346.94;5024877;28;20008;-64
2023/04/08 05:16:02;;;;;;;;;;;;;;;7.45;98.13;102344.31;5023098;28;20394;-64
2023/04/08 05:18:28;;;;;;;;;;;;;;;7.45;98.03;102346.94;5025281;28;19925;-64
2023/04/08 05:20:53;;;;;;;;;;;;;;;7.44;97.83;102348.75;5016284;28;19971;-64
2023/04/08 05:23:18;;;;;;;;;;;;;;;7.45;98.11;102352.25;5024332;28;19987;-64
2023/04/08 05:25:43;;;;;;;;;;;;;;;7.46;97.82;102351.28;5020326;28;19916;-65
2023/04/08 05:28:08;;;;;;;;;;;;;;;7.46;98.07;102349.47;5018707;28;19932;-64
2023/04/08 05:30:34;;;;;;;;;;;;;;;7.47;97.94;102360.91;5028282;28;20007;-63
2023/04/08 05:32:59;;;;;;;;;;;;;;;7.49;98.10;102355.50;5024244;28;19917;-64
2023/04/08 05:35:24;;;;;;;;;;;;;;;7.51;97.93;102354.44;5022698;28;20283;-64
2023/04/08 05:37:49;;;;;;;;;;;;;;;7.54;98.18;102351.59;5021660;28;19928;-64
2023/04/08 05:40:15;;;;;;;;;;;;;;;7.56;98.36;102354.09;5024902;28;19932;-64
2023/04/08 05:42:41;;;;;;;;;;;;;;;7.58;98.22;102357.47;5024900;28;19913;-64
2023/04/08 05:45:07;;;;;;;;;;;;;;;7.59;98.55;102360.00;5026991;28;20003;-64
2023/04/08 05:47:32;;;;;;;;;;;;;;;7.61;98.43;102363.38;5030594;28;20005;-64
2023/04/08 05:49:57;;;;;;;;;;;;;;;7.62;98.36;102361.59;5023097;28;19971;-64
2023/04/08 05:52:22;;;;;;;;;;;;;;;7.63;98.37;102364.09;5030268;28;19913;-64
2023/04/08 05:54:47;;;;;;;;;;;;;;;7.66;98.73;102370.97;5027448;28;19920;-64
2023/04/08 05:57:12;;;;;;;;;;;;;;;7.67;98.44;102370.00;5030142;28;19925;-64
2023/04/08 05:59:38;;;;;;;;;;;;;;;7.69;98.76;102373.38;5020258;28;19921;-64
2023/04/08 06:02:03;;;;;;;;;;;;;;;7.69;98.59;102368.94;5027101;28;20401;-64
2023/04/08 06:04:28;;;;;;;;;;;;;;;7.71;98.58;102369.66;5022801;28;19968;-64
2023/04/08 06:06:55;;;;;;;;;;;;;;;7.73;98.75;102375.69;5020930;28;20506;-64
2023/04/08 06:09:20;;;;;;;;;;;;;;;7.74;98.62;102379.16;5026079;28;19917;-63
2023/04/08 06:11:48;;;;;;;;;;;;;;;7.76;98.58;102383.38;5024393;28;19913;-64
2023/04/08 06:14:13;;;;;;;;;;;;;;;7.71;98.67;102371.47;5028025;28;19920;-64
2023/04/08 06:16:38;;;;;;;;;;;;;;;7.80;98.87;102386.63;5022741;28;19917;-64
2023/04/08 06:19:03;;;;;;;;;;;;;;;7.82;99.23;102389.19;5029312;28;19928;-64
2023/04/08 06:21:28;;;;;;;;;;;;;;;7.82;99.47;102389.19;5026622;28;19971;-64
2023/04/08 06:23:53;;;;;;;;;;;;;;;7.82;99.25;102394.47;5023384;28;19917;-64
2023/04/08 06:26:19;;;;;;;;;;;;;;;7.83;99.58;102397.00;5018425;28;19924;-64
2023/04/08 06:28:44;;;;;;;;;;;;;;;7.85;99.41;102391.59;5022963;28;19925;-64
2023/04/08 06:31:09;;;;;;;;;;;;;;;7.87;99.27;102403.75;5028227;28;19917;-64
2023/04/08 06:33:34;;;;;;;;;;;;;;;7.88;99.38;102396.66;5022300;28;20082;-64
2023/04/08 06:36:01;;;;;;;;;;;;;;;7.91;99.19;102402.56;5022208;28;19917;-64
2023/04/08 06:38:26;;;;;;;;;;;;;;;7.91;99.32;102405.22;5022513;28;19913;-64
2023/04/08 06:40:51;;;;;;;;;;;;;;;7.93;99.23;102413.03;5025889;28;20011;-64
2023/04/08 06:43:17;;;;;;;;;;;;;;;7.94;99.36;102422.66;5019200;28;19952;-64
2023/04/08 06:45:42;;;;;;;;;;;;;;;7.95;99.54;102416.41;5014618;28;19997;-64
2023/04/08 06:48:08;;;;;;;;;;;;;;;7.99;99.21;102420.50;5026106;28;19997;-64
2023/04/08 06:50:33;;;;;;;;;;;;;;;7.99;99.50;102421.34;5018966;28;19968;-64
2023/04/08 06:52:59;;;;;;;;;;;;;;;8.02;99.58;102420.25;5023189;28;19917;-63
2023/04/08 06:55:24;;;;;;;;;;;;;;;8.02;99.40;102426.41;5018368;28;19917;-64
2023/04/08 06:57:49;;;;;;;;;;;;;;;8.04;99.55;102427.13;5014379;28;19921;-64
2023/04/08 07:00:14;;;;;;;;;;;;;;;8.05;99.35;102426.16;5027951;28;20008;-64
2023/04/08 07:02:40;;;;;;;;;;;;;;;8.05;99.45;102430.63;5026739;28;19917;-64
2023/04/08 07:05:05;;;;;;;;;;;;;;;8.06;99.64;102440.25;5024337;28;20008;-63
2023/04/08 07:07:31;;;;;;;;;;;;;;;8.04;99.51;102442.16;5023725;28;20357;-64
2023/04/08 07:09:56;;;;;;;;;;;;;;;8.03;99.28;102449.25;5002075;28;19921;-63
2023/04/08 07:12:21;;;;;;;;;;;;;;;8.03;99.21;102445.75;5020000;28;19924;-64
2023/04/08 07:14:46;;;;;;;;;;;;;;;8.04;99.45;102447.44;5025828;28;19921;-63
2023/04/08 07:17:11;;;;;;;;;;;;;;;8.03;99.32;102449.25;5019646;28;19924;-63
2023/04/08 07:19:37;;;;;;;;;;;;;;;8.04;99.38;102458.03;5025137;28;19932;-64
2023/04/08 07:22:02;;;;;;;;;;;;;;;8.03;99.22;102456.34;5019227;28;20659;-64
2023/04/08 07:24:28;;;;;;;;;;;;;;;8.02;99.19;102459.94;5016547;28;19999;-64
2023/04/08 07:26:55;;;;;;;;;;;;;;;8.01;98.92;102459.09;5017732;28;20008;-64
2023/04/08 07:29:20;;;;;;;;;;;;;;;8.01;99.19;102463.56;5020198;28;20383;-64
2023/04/08 07:31:45;;;;;;;;;;;;;;;8.00;99.22;102469.81;5022192;28;19968;-64
2023/04/08 07:34:10;;;;;;;;;;;;;;;7.99;98.95;102466.31;5032455;28;19984;-64
2023/04/08 07:36:35;;;;;;;;;;;;;;;7.99;98.83;102470.75;5032858;28;19968;-64
2023/04/08 07:39:01;;;;;;;;;;;;;;;7.98;99.21;102474.38;5030236;28;19924;-64
2023/04/08 07:41:26;;;;;;;;;;;;;;;7.97;98.78;102472.69;5029537;28;20335;-63
2023/04/08 07:43:51;;;;;;;;;;;;;;;7.93;98.85;102480.00;5029317;28;19957;-64
2023/04/08 07:46:17;;;;;;;;;;;;;;;7.90;98.68;102480.22;5034188;28;19921;-63
2023/04/08 07:48:42;;;;;;;;;;;;;;;7.92;98.91;102480.13;5027000;28;19918;-64
2023/04/08 07:51:08;;;;;;;;;;;;;;;7.95;99.26;102487.81;5025242;28;20408;-64
2023/04/08 07:53:33;;;;;;;;;;;;;;;7.97;99.32;102477.97;5034430;28;19921;-64
2023/04/08 07:55:59;;;;;;;;;;;;;;;7.91;99.11;102481.91;5025266;28;19913;-64
2023/04/08 07:58:25;;;;;;;;;;;;;;;8.00;99.34;102489.16;5033456;28;19940;-64
2023/04/08 08:00:50;;;;;;;;;;;;;;;8.04;99.06;102485.34;5027535;28;20413;-64
2023/04/08 08:03:15;;;;;;;;;;;;;;;8.06;99.29;102485.22;5026911;28;19967;-64
2023/04/08 08:05:41;;;;;;;;;;;;;;;8.07;99.32;102495.69;5029397;28;20390;-64
2023/04/08 08:08:06;;;;;;;;;;;;;;;8.11;99.10;102492.84;5032599;28;20290;-64
2023/04/08 08:10:32;;;;;;;;;;;;;;;8.12;99.42;102495.38;5027043;28;19917;-64
2023/04/08 08:12:57;;;;;;;;;;;;;;;8.13;99.04;102501.50;5029742;28;19987;-64
2023/04/08 08:15:22;;;;;;;;;;;;;;;8.13;99.57;102504.16;5023931;28;19917;-63
2023/04/08 08:17:49;;;;;;;;;;;;;;;8.15;99.00;102507.53;5031335;28;21255;-63
2023/04/08 08:20:15;;;;;;;;;;;;;;;8.18;99.12;102508.13;5033541;28;19913;-63
2023/04/08 08:22:40;;;;;;;;;;;;;;;8.21;99.25;102502.63;5034519;28;19913;-64
2023/04/08 08:25:06;;;;;;;;;;;;;;;8.26;99.17;102510.19;5029851;28;19917;-64
2023/04/08 08:27:33;;;;;;;;;;;;;;;8.28;99.14;102508.28;5033607;28;19967;-64
2023/04/08 08:29:58;;;;;;;;;;;;;;;8.30;99.47;102511.66;5032140;28;20399;-64
2023/04/08 08:32:23;;;;;;;;;;;;;;;8.32;99.22;102505.28;5031906;28;20024;-64
2023/04/08 08:34:48;;;;;;;;;;;;;;;8.36;99.44;102508.59;5009295;28;19913;-64
2023/04/08 08:37:14;;;;;;;;;;;;;;;8.41;99.01;102510.91;5030112;28;19956;-64
2023/04/08 08:39:39;;;;;;;;;;;;;;;8.44;99.10;102511.53;5034150;28;19925;-64
2023/04/08 08:42:04;;;;;;;;;;;;;;;8.48;99.56;102514.78;5024397;28;20322;-64
2023/04/08 08:44:30;;;;;;;;;;;;;;;8.50;99.01;102524.28;5031072;28;20370;-63
2023/04/08 08:46:55;;;;;;;;;;;;;;;8.54;99.39;102533.69;5025187;28;19971;-64
2023/04/08 08:49:21;;;;;;;;;;;;;;;8.58;99.06;102529.00;5023554;28;19917;-64
2023/04/08 08:51:46;;;;;;;;;;;;;;;8.59;98.98;102525.38;5030033;28;19966;-63
2023/04/08 08:54:13;;;;;;;;;;;;;;;8.55;98.96;102522.13;5023109;28;19917;-64
2023/04/08 08:56:39;;;;;;;;;;;;;;;8.55;98.75;102531.88;5022408;28;19913;-63
2023/04/08 08:59:04;;;;;;;;;;;;;;;8.53;98.57;102532.00;5027702;28;19936;-64
2023/04/08 09:01:31;;;;;;;;;;;;;;;8.54;98.66;102533.69;5024513;28;19913;-64
2023/04/08 09:04:14;;;;;;;;;;;;;;;8.62;98.49;102533.09;5027555;28;19925;-63
2023/04/08 09:06:39;;;;;;;;;;;;;;;8.69;98.73;102540.47;5026438;28;19913;-63
2023/04/08 09:09:09;;;;;;;;;;;;;;;8.74;98.77;102542.78;5019966;28;19917;-63
2023/04/08 09:11:34;;;;;;;;;;;;;;;8.75;98.41;102551.56;5024952;28;19917;-63
2023/04/08 09:13:59;;;;;;;;;;;;;;;8.73;98.06;102548.19;5028741;28;19914;-63
2023/04/08 09:16:25;;;;;;;;;;;;;;;8.74;97.93;102552.53;5029420;28;20375;-63
2023/04/08 09:18:50;;;;;;;;;;;;;;;8.77;97.87;102549.63;5017976;28;20021;-64
2023/04/08 09:21:16;;;;;;;;;;;;;;;8.80;97.97;102552.06;5030069;28;20317;-64
2023/04/08 09:23:43;;;;;;;;;;;;;;;8.84;97.83;102553.50;5014526;28;19925;-64
2023/04/08 09:26:09;;;;;;;;;;;;;;;8.89;97.97;102557.47;5026154;28;19933;-64
2023/04/08 09:28:34;;;;;;;;;;;;;;;8.95;98.13;102556.16;5020878;28;19921;-64
2023/04/08 09:31:00;;;;;;;;;;;;;;;9.06;97.98;102558.00;5020954;28;19979;-63
2023/04/08 09:33:31;;;;;;;;;;;;;;;9.12;97.46;102560.19;5026697;28;19920;-63
2023/04/08 09:35:57;;;;;;;;;;;;;;;9.06;97.36;102558.00;5027503;28;19967;-63
2023/04/08 09:38:22;;;;;;;;;;;;;;;9.02;97.16;102559.22;5025606;28;19918;-64
2023/04/08 09:40:47;;;;;;;;;;;;;;;9.04;96.71;102557.28;5026538;28;19923;-64
2023/04/08 09:43:17;;;;;;;;;;;;;;;9.09;96.62;102555.97;5021211;28;19921;-64
2023/04/08 09:45:45;;;;;;;;;;;;;;;9.11;96.62;102563.78;5025893;28;19913;-64
2023/04/08 09:48:21;;;;;;;;;;;;;;;9.14;96.52;102564.38;5024263;28;19971;-64
2023/04/08 09:50:48;;;;;;;;;;;;;;;9.22;96.92;102566.44;5028598;28;19913;-64
2023/04/08 09:53:18;;;;;;;;;;;;;;;9.33;96.79;102553.22;5011756;28;19921;-63
2023/04/08 09:55:46;;;;;;;;;;;;;;;9.43;96.26;102559.47;5022775;28;20000;-64
2023/04/08 09:58:15;;;;;;;;;;;;;;;9.54;96.50;102555.94;5026006;28;19917;-64
2023/04/08 10:00:45;;;;;;;;;;;;;;;9.63;96.13;102568.50;5026084;28;19969;-64
2023/04/08 10:03:19;;;;;;;;;;;;;;;9.71;95.87;102568.72;5023901;28;19921;-64
2023/04/08 10:05:45;;;;;;;;;;;;;;;9.77;95.68;102575.34;5025081;28;19960;-64
2023/04/08 10:08:11;;;;;;;;;;;;;;;9.77;95.25;102567.38;5024742;28;20388;-64
2023/04/08 10:10:40;;;;;;;;;;;;;;;9.82;94.94;102570.50;5018995;28;19917;-64
2023/04/08 10:13:08;;;;;;;;;;;;;;;9.91;94.83;102567.13;5032208;28;19917;-63
2023/04/08 10:15:35;;;;;;;;;;;;;;;10.00;94.24;102566.38;5019854;28;20024;-63
2023/04/08 10:18:03;;;;;;;;;;;;;;;10.11;94.45;102571.66;5028314;28;19913;-63
2023/04/08 10:20:34;;;;;;;;;;;;;;;10.22;94.18;102571.66;5020458;28;20473;-64
2023/04/08 10:23:00;;;;;;;;;;;;;;;10.33;93.92;102570.78;5025918;28;20625;-64
2023/04/08 10:25:39;;;;;;;;;;;;;;;10.41;93.09;102576.31;5026766;28;20004;-64
2023/04/08 10:28:10;;;;;;;;;;;;;;;10.52;92.59;102576.25;5019391;28;19921;-64
2023/04/08 10:30:39;;;;;;;;;;;;;;;10.63;92.05;102571.84;5025008;28;19924;-64
2023/04/08 10:33:09;;;;;;;;;;;;;;;10.81;91.18;102570.31;5020079;28;19925;-64
2023/04/08 10:35:35;;;;;;;;;;;;;;;11.04;90.67;102560.41;5020461;28;19944;-64
2023/04/08 10:38:00;;;;;;;;;;;;;;;11.18;89.71;102560.03;5025076;28;20382;-63
2023/04/08 10:40:26;;;;;;;;;;;;;;;11.38;89.81;102559.16;5023398;28;19925;-64
2023/04/08 10:42:54;;;;;;;;;;;;;;;11.60;89.50;102552.81;5020844;28;19931;-63
2023/04/08 10:45:20;;;;;;;;;;;;;;;11.72;88.37;102546.38;5021551;28;19963;-64
2023/04/08 10:47:45;;;;;;;;;;;;;;;11.81;88.22;102541.25;5022013;28;19964;-63
2023/04/08 10:50:13;;;;;;;;;;;;;;;11.86;88.01;102545.22;5022406;28;19952;-64
2023/04/08 10:52:45;;;;;;;;;;;;;;;11.97;87.91;102537.09;5019430;28;20020;-64
2023/04/08 10:55:11;;;;;;;;;;;;;;;11.98;86.81;102541.44;5016977;28;20374;-64
2023/04/08 10:57:36;;;;;;;;;;;;;;;12.01;85.26;102538.50;5025681;28;19960;-64
2023/04/08 11:00:04;;;;;;;;;;;;;;;11.93;84.54;102538.34;5019519;28;19928;-64
2023/04/08 11:02:33;;;;;;;;;;;;;;;12.03;84.64;102530.34;5022478;28;20393;-64
2023/04/08 11:04:58;;;;;;;;;;;;;;;12.23;84.96;102537.41;5021618;28;20004;-64
2023/04/08 11:07:24;;;;;;;;;;;;;;;12.36;84.55;102537.94;5022905;28;20028;-64
2023/04/08 11:09:49;;;;;;;;;;;;;;;12.44;84.08;102539.09;5023632;28;19921;-64
2023/04/08 11:12:17;;;;;;;;;;;;;;;12.43;83.96;102537.38;5023625;28;20052;-63
2023/04/08 11:14:42;;;;;;;;;;;;;;;12.48;83.46;102537.81;5031320;28;19914;-64
2023/04/08 11:17:08;;;;;;;;;;;;;;;12.55;83.98;102539.75;5020174;28;19948;-64
2023/04/08 11:19:34;;;;;;;;;;;;;;;12.45;81.74;102536.28;5027039;28;20008;-64
2023/04/08 11:22:01;;;;;;;;;;;;;;;12.33;81.56;102527.56;5023181;28;19917;-64
2023/04/08 11:24:27;;;;;;;;;;;;;;;12.44;81.95;102533.75;5030135;28;20023;-64
2023/04/08 11:26:52;;;;;;;;;;;;;;;12.60;81.64;102536.66;5018316;28;19929;-64
2023/04/08 11:29:18;;;;;;;;;;;;;;;12.80;80.90;102541.00;5005930;28;20360;-64
2023/04/08 11:31:43;;;;;;;;;;;;;;;12.98;78.78;102533.06;5025030;28;19913;-64
2023/04/08 11:34:08;;;;;;;;;;;;;;;13.16;77.64;102531.34;5022377;28;19917;-64
2023/04/08 11:36:35;;;;;;;;;;;;;;;13.35;77.47;102535.81;5026527;28;19912;-64
2023/04/08 11:39:05;;;;;;;;;;;;;;;13.48;76.88;102541.63;5022761;28;20016;-64
2023/04/08 11:41:38;;;;;;;;;;;;;;;13.66;76.45;102532.84;5025702;28;19917;-64
2023/04/08 11:44:04;;;;;;;;;;;;;;;13.85;76.59;102530.88;5026522;28;19917;-64
2023/04/08 11:46:29;;;;;;;;;;;;;;;14.02;75.64;102529.22;5025688;28;19995;-65
2023/04/08 11:48:58;;;;;;;;;;;;;;;14.16;75.58;102535.84;5027426;28;20290;-64
2023/04/08 11:51:23;;;;;;;;;;;;;;;14.26;74.85;102539.31;5029894;28;19913;-64
2023/04/08 11:53:50;;;;;;;;;;;;;;;14.35;74.09;102534.88;5024579;28;19940;-64
2023/04/08 11:56:16;;;;;;;;;;;;;;;14.31;71.71;102534.34;5025212;28;20346;-64
2023/04/08 11:58:41;;;;;;;;;;;;;;;14.25;69.79;102535.78;5030335;28;19913;-64
2023/04/08 12:01:06;;;;;;;;;;;;;;;14.31;69.64;102534.34;5029356;28;20030;-64
2023/04/08 12:03:31;;;;;;;;;;;;;;;14.34;69.77;102526.00;5021296;28;19913;-64
2023/04/08 12:05:58;;;;;;;;;;;;;;;14.39;69.48;102531.72;5028405;28;19952;-64
2023/04/08 12:08:23;;;;;;;;;;;;;;;14.34;70.40;102520.66;5025278;28;19944;-64
2023/04/08 12:10:48;;;;;;;;;;;;;;;14.40;69.75;102522.72;5015945;28;19940;-64
2023/04/08 12:13:13;;;;;;;;;;;;;;;14.54;68.72;102526.72;5023584;28;20390;-64
2023/04/08 12:15:39;;;;;;;;;;;;;;;14.66;67.98;102517.44;5024976;28;20012;-64
2023/04/08 12:18:05;;;;;;;;;;;;;;;14.75;67.80;102515.69;5026306;28;20310;-64
2023/04/08 12:20:30;;;;;;;;;;;;;;;14.96;68.01;102518.78;5025139;28;19917;-64
2023/04/08 12:22:55;;;;;;;;;;;;;;;15.06;67.14;102514.19;5030471;28;20338;-64
2023/04/08 12:25:20;;;;;;;;;;;;;;;15.14;66.26;102522.25;5022580;28;19917;-64
2023/04/08 12:27:45;;;;;;;;;;;;;;;15.13;65.59;102515.22;5027459;28;20040;-64
2023/04/08 12:30:11;;;;;;;;;;;;;;;15.11;65.85;102517.22;5029345;28;19924;-64
2023/04/08 12:32:36;;;;;;;;;;;;;;;15.24;65.37;102516.78;5027425;28;19995;-64
2023/04/08 12:35:02;;;;;;;;;;;;;;;15.37;64.02;102519.03;5022327;28;19917;-64
2023/04/08 12:37:27;;;;;;;;;;;;;;;15.44;64.22;102520.88;5021843;28;19936;-64
2023/04/08 12:39:52;;;;;;;;;;;;;;;15.60;63.44;102516.59;5017796;28;19925;-64